Kornett — CQEJ — position and weather

sailwx.info

Track history (hours):
 
Tides and Currents Weather Stations Pressure Air Temp Water Temp Dewpoint Dewpoint Depression Visibility Wind Speed Wind Dir Waves Ship Positions

Kornett

Last reported at 2017-Oct-18 03:17 UTC. Time now 2017-Oct-18 11:30 UTC.
Position N 38°03' W 000°11'.

Length 135 m; draft 7.2 m.

Type: Ship (hazmat cat A). MMSI: 255805686.

Date/timePositionNaut miles runAvg speedWind from/ knotsBaromVisibWave heightAir tempDewpointWater temp
2017-Oct-18 03:17N 38°03' W 000°11'517.3
2017-Oct-18 03:01N 37°60' W 000°16'917.3
2017-Oct-18 02:30N 37°52' W 000°22'917.3
2017-Oct-18 02:00N 37°44' W 000°26'817.3
2017-Oct-18 01:31N 37°36' W 000°29'815.1
2017-Oct-18 00:57N 37°32' W 000°38'817.1
2017-Oct-18 00:31N 37°32' W 000°48'9 0.6
2017-Oct-17 09:12N 37°33' W 000°59'3 6.6
2017-Oct-17 08:48N 37°31' W 001°01'1 0.6
2017-Oct-17 06:37N 37°32' W 001°00'1 4.5
2017-Oct-17 06:27N 37°31' W 001°01'3 7.9
2017-Oct-17 06:00N 37°28' W 001°00'3 6.6
2017-Oct-17 05:29N 37°24' W 001°00'2 3.0
2017-Oct-17 04:59N 37°24' W 000°59'3 5.2
2017-Oct-17 04:29N 37°26' W 000°56'4 7.4
2017-Oct-17 04:00N 37°27' W 001°00'21811.9
2017-Oct-16 09:39N 36°01' W 005°10'213.9
2017-Oct-16 09:30N 36°01' W 005°12'713.7
2017-Oct-16 09:00N 35°60' W 005°21'713.4
2017-Oct-16 08:30N 35°58' W 005°29'9612.4
2017-Oct-16 00:44N 36°12' W 007°27'312.8
2017-Oct-16 00:28N 36°13' W 007°31'812.9
2017-Oct-15 23:50N 36°15' W 007°41'412.6
2017-Oct-15 23:30N 36°16' W 007°45'712.8
2017-Oct-15 23:00N 36°17' W 007°53'712.7
2017-Oct-15 22:28N 36°19' W 008°01'713.7
2017-Oct-15 21:59N 36°21' W 008°09'2413.6
2017-Oct-15 20:15N 36°26' W 008°38'513.6
2017-Oct-15 19:55N 36°27' W 008°43'613.6
2017-Oct-15 19:30N 36°29' W 008°50'815.0
2017-Oct-15 19:00N 36°31' W 008°59'815.3
2017-Oct-15 18:31N 36°33' W 009°08'815.4
2017-Oct-15 18:01N 36°35' W 009°17'815.5
2017-Oct-15 17:31N 36°41' W 009°24'815.6
2017-Oct-15 17:01N 36°47' W 009°30'815.2
2017-Oct-15 16:31N 36°54' W 009°33'715.0
2017-Oct-15 16:01N 37°01' W 009°32'815.6
2017-Oct-15 15:31N 37°08' W 009°27'815.3
2017-Oct-15 15:00N 37°15' W 009°22'1515.0
2017-Oct-15 14:00N 37°28' W 009°12'815.3
2017-Oct-15 13:30N 37°34' W 009°07'815.8
2017-Oct-15 13:01N 37°41' W 009°02'815.7
2017-Oct-15 12:30N 37°47' W 008°56'815.8
2017-Oct-15 12:01N 37°54' W 008°51'2 4.0
2017-Oct-15 11:30N 37°56' W 008°51'0 0.0
2017-Oct-15 11:01N 37°56' W 008°51'0 0.0
2017-Oct-15 10:30N 37°56' W 008°51'0 0.0
2017-Oct-15 10:01N 37°56' W 008°51'0 0.0
2017-Oct-15 09:30N 37°56' W 008°51'0 0.0
2017-Oct-15 09:00N 37°56' W 008°51'0 0.0
2017-Oct-15 08:31N 37°56' W 008°51'2 3.6
2017-Oct-15 08:00N 37°54' W 008°50'714.7
2017-Oct-15 07:31N 37°48' W 008°56'816.5
2017-Oct-15 07:00N 37°42' W 009°02'816.4
2017-Oct-15 06:31N 37°36' W 009°09'816.4
2017-Oct-15 06:00N 37°30' W 009°16'816.4
2017-Oct-15 05:30N 37°23' W 009°23'816.2
2017-Oct-15 05:00N 37°17' W 009°29'816.2
2017-Oct-15 04:30N 37°11' W 009°36'816.3
2017-Oct-15 04:00N 37°05' W 009°43'816.7
2017-Oct-15 03:30N 36°59' W 009°50'816.6
2017-Oct-15 03:00N 36°51' W 009°53'816.7
2017-Oct-15 02:31N 36°43' W 009°57'816.5
2017-Oct-15 02:00N 36°35' W 010°00'816.5
2017-Oct-15 01:30N 36°28' W 010°04'816.3
2017-Oct-15 01:00N 36°20' W 010°07'816.6
2017-Oct-15 00:30N 36°12' W 010°10'816.6
2017-Oct-15 00:00N 36°04' W 010°14'816.6
2017-Oct-14 23:30N 35°56' W 010°17'816.5
2017-Oct-14 23:00N 35°48' W 010°20'816.8
2017-Oct-14 22:30N 35°40' W 010°23'1516.9
2017-Oct-14 21:37N 35°26' W 010°29'216.7
2017-Oct-14 21:28N 35°24' W 010°30'816.6
2017-Oct-14 20:59N 35°16' W 010°34'816.8
2017-Oct-14 20:30N 35°09' W 010°37'5016.8
2017-Oct-14 17:33N 34°22' W 010°58'318.1
2017-Oct-14 17:24N 34°20' W 010°59'716.1
2017-Oct-14 17:00N 34°13' W 011°02'31716.4
2017-Oct-13 21:38N 29°16' W 013°11'216.4
2017-Oct-13 21:29N 29°13' W 013°12'816.4
2017-Oct-13 21:00N 29°06' W 013°16'1116.2
2017-Oct-13 20:18N 28°60' W 013°26'515.6
2017-Oct-13 20:00N 28°58' W 013°31'1 1.1
2017-Oct-13 19:20N 28°58' W 013°32'0 0.0
2017-Oct-13 18:53N 28°58' W 013°32'0 0.0
2017-Oct-13 18:29N 28°58' W 013°32'0 0.0
2017-Oct-13 17:59N 28°58' W 013°32'0 0.0
2017-Oct-13 17:29N 28°58' W 013°32'0 0.0
2017-Oct-13 16:59N 28°58' W 013°32'0 0.0
2017-Oct-13 16:29N 28°58' W 013°32'0 0.3
2017-Oct-13 15:06N 28°58' W 013°32'0 4.0
2017-Oct-13 15:00N 28°57' W 013°32'1 2.2
2017-Oct-13 14:31N 28°56' W 013°32'1 1.1
2017-Oct-13 14:00N 28°56' W 013°33'510.1
2017-Oct-13 13:30N 28°52' W 013°35'713.5
2017-Oct-13 13:00N 28°46' W 013°39'815.3
2017-Oct-13 12:30N 28°39' W 013°43'815.6
2017-Oct-13 12:00N 28°32' W 013°48'4 2.4
2017-Oct-13 10:17N 28°30' W 013°51'0 0.0
2017-Oct-13 10:00N 28°30' W 013°51'0 0.0
2017-Oct-13 09:27N 28°30' W 013°51'0 0.0
2017-Oct-13 08:59N 28°30' W 013°51'0 0.0
2017-Oct-13 08:30N 28°30' W 013°51'0 0.0
2017-Oct-13 08:00N 28°30' W 013°51'0 0.0
2017-Oct-13 07:30N 28°30' W 013°51'0 0.0
2017-Oct-13 07:00N 28°30' W 013°51'0 0.0
2017-Oct-13 06:30N 28°30' W 013°51'0 0.0
2017-Oct-13 06:00N 28°30' W 013°51'0 0.0
2017-Oct-13 05:28N 28°30' W 013°51'0 0.0
2017-Oct-13 04:59N 28°30' W 013°51'2 4.0
2017-Oct-13 04:28N 28°28' W 013°50'511.5
2017-Oct-13 04:00N 28°24' W 013°47'611.1
2017-Oct-13 03:30N 28°18' W 013°49'511.2
2017-Oct-13 03:00N 28°14' W 013°52'510.5
2017-Oct-13 02:30N 28°10' W 013°56'510.7
2017-Oct-13 02:00N 28°07' W 014°01'610.7
2017-Oct-13 01:28N 28°04' W 014°07'510.6
2017-Oct-13 01:00N 28°02' W 014°12'0 0.8
2017-Oct-13 00:30N 28°03' W 014°12'612.5
2017-Oct-13 00:00N 28°04' W 014°05'2 3.8
2017-Oct-12 23:30N 28°03' W 014°06'510.6
2017-Oct-12 23:00N 28°01' W 014°12'510.9
2017-Oct-12 22:30N 28°00' W 014°18'510.7
2017-Oct-12 22:00N 28°00' W 014°24'511.0
2017-Oct-12 21:30N 28°01' W 014°30'611.6
2017-Oct-12 21:00N 28°02' W 014°37'611.4
2017-Oct-12 20:30N 28°03' W 014°43'611.9
2017-Oct-12 20:00N 28°04' W 014°50'611.6
2017-Oct-12 19:30N 28°05' W 014°56'611.6
2017-Oct-12 19:00N 28°07' W 015°03'611.5
2017-Oct-12 18:30N 28°08' W 015°09'611.6
2017-Oct-12 18:00N 28°09' W 015°15'611.5
2017-Oct-12 17:30N 28°11' W 015°21'611.1
2017-Oct-12 17:00N 28°13' W 015°27'611.5
2017-Oct-12 16:30N 28°14' W 015°34'611.4
2017-Oct-12 16:00N 28°15' W 015°40'611.3
2017-Oct-12 15:30N 28°15' W 015°47'611.3
2017-Oct-12 15:00N 28°15' W 015°53'611.4
2017-Oct-12 14:30N 28°16' W 015°59'611.2
2017-Oct-12 14:00N 28°19' W 016°05'611.5
2017-Oct-12 13:30N 28°23' W 016°09'611.4
2017-Oct-12 13:00N 28°28' W 016°13'1 2.0
2017-Oct-12 12:16N 28°29' W 016°14'0 0.0
2017-Oct-12 12:01N 28°29' W 016°14'0 0.0
2017-Oct-12 11:30N 28°29' W 016°14'0 0.0
2017-Oct-12 11:00N 28°29' W 016°14'0 0.0
2017-Oct-12 10:30N 28°29' W 016°14'0 0.0
2017-Oct-12 10:00N 28°29' W 016°14'0 0.0
2017-Oct-12 09:30N 28°29' W 016°14'0 0.0
2017-Oct-12 08:59N 28°29' W 016°14'0 0.0
2017-Oct-12 08:26N 28°29' W 016°14'0 0.0
2017-Oct-12 08:00N 28°29' W 016°14'0 0.0
2017-Oct-12 07:22N 28°29' W 016°14'0 0.0
2017-Oct-12 06:14N 28°29' W 016°14'0 0.5
2017-Oct-12 06:00N 28°29' W 016°14'3 6.7
2017-Oct-12 05:30N 28°27' W 016°11'915.0
2017-Oct-12 04:55N 28°24' W 016°01'615.2
2017-Oct-12 04:30N 28°22' W 015°55'815.1
2017-Oct-12 04:00N 28°20' W 015°47'815.7
2017-Oct-12 03:30N 28°17' W 015°38'815.6
2017-Oct-12 03:00N 28°14' W 015°30'714.6
2017-Oct-12 02:31N 28°10' W 015°23'3 6.1
2017-Oct-12 02:00N 28°08' W 015°25'0 0.4
2017-Oct-12 01:28N 28°08' W 015°25'0 0.0
2017-Oct-12 00:58N 28°08' W 015°25'0 0.0
2017-Oct-12 00:28N 28°08' W 015°25'0 0.0
2017-Oct-11 23:58N 28°08' W 015°25'0 0.0
2017-Oct-11 23:28N 28°08' W 015°25'0 0.0
2017-Oct-11 22:58N 28°08' W 015°25'0 0.0
2017-Oct-11 22:28N 28°08' W 015°25'0 0.0
2017-Oct-11 21:58N 28°08' W 015°25'0 0.0
2017-Oct-11 21:28N 28°08' W 015°25'0 0.0
2017-Oct-11 20:58N 28°08' W 015°25'0 0.0
2017-Oct-11 20:28N 28°08' W 015°25'0 0.0
2017-Oct-11 19:58N 28°08' W 015°25'0 0.0
2017-Oct-11 19:28N 28°08' W 015°25'0 0.0
2017-Oct-11 18:49N 28°08' W 015°25'0 0.0
2017-Oct-11 18:04N 28°08' W 015°25'0 0.0
2017-Oct-11 17:46N 28°08' W 015°25'0 0.0
2017-Oct-11 17:22N 28°08' W 015°25'0 0.0
2017-Oct-11 16:52N 28°08' W 015°25'64 3.8
2017-Oct-11 00:00N 28°33' W 014°18'613.0
2017-Oct-10 23:30N 28°38' W 014°13'612.9
2017-Oct-10 23:01N 28°42' W 014°07'713.1
2017-Oct-10 22:31N 28°46' W 014°01'612.8
2017-Oct-10 22:00N 28°48' W 013°54'712.8
2017-Oct-10 21:30N 28°49' W 013°47'713.3
2017-Oct-10 21:00N 28°52' W 013°40'713.4
2017-Oct-10 20:30N 28°55' W 013°33'713.6
2017-Oct-10 20:01N 28°59' W 013°27'713.6
2017-Oct-10 19:29N 29°03' W 013°21'713.4
2017-Oct-10 18:56N 29°08' W 013°14'5814.8
2017-Oct-10 15:03N 29°50' W 012°29'115.1
2017-Oct-10 15:00N 29°51' W 012°29'32615.1
2017-Oct-09 17:26N 33°54' W 008°13'715.5
2017-Oct-09 17:00N 33°59' W 008°08'815.3
2017-Oct-09 16:30N 34°05' W 008°02'815.1
2017-Oct-09 16:00N 34°11' W 007°55'715.0
2017-Oct-09 15:31N 34°16' W 007°49'714.9
2017-Oct-09 15:01N 34°21' W 007°43'814.9
2017-Oct-09 14:30N 34°27' W 007°36'715.1
2017-Oct-09 14:01N 34°32' W 007°30'714.9
2017-Oct-09 13:31N 34°38' W 007°24'815.2
2017-Oct-09 13:00N 34°43' W 007°18'715.0
2017-Oct-09 12:31N 34°49' W 007°12'714.8
2017-Oct-09 12:00N 34°54' W 007°06'714.9
2017-Oct-09 11:30N 34°60' W 006°59'815.7
2017-Oct-09 11:01N 35°05' W 006°53'815.3
2017-Oct-09 10:30N 35°11' W 006°46'714.6
2017-Oct-09 10:00N 35°15' W 006°39'714.9
2017-Oct-09 09:31N 35°21' W 006°33'815.0
2017-Oct-09 09:00N 35°26' W 006°27'815.4
2017-Oct-09 08:30N 35°32' W 006°20'27613.2
2017-Oct-08 11:33N 37°14' W 001°02'114.2
2017-Oct-08 11:28N 37°15' W 001°01'714.3
2017-Oct-08 11:00N 37°19' W 000°55'714.3
2017-Oct-08 10:30N 37°24' W 000°48'714.3
2017-Oct-08 10:00N 37°29' W 000°42'714.2
2017-Oct-08 09:30N 37°34' W 000°35'714.1
2017-Oct-08 09:00N 37°39' W 000°30'714.3
2017-Oct-08 08:30N 37°45' W 000°25'814.4
2017-Oct-08 07:59N 37°52' W 000°20'714.3
2017-Oct-08 07:30N 37°58' W 000°15'  
Track history (hours):
 
Tides and Currents Weather Stations Pressure Air Temp Water Temp Dewpoint Dewpoint Depression Visibility Wind Speed Wind Dir Waves Ship Positions

Kornett

Last reported at 2017-Oct-18 03:17 UTC. Time now 2017-Oct-18 11:30 UTC.
Position N 38°03' W 000°11'.

Length 135 m; draft 7.2 m.

Type: Ship (hazmat cat A). MMSI: 255805686.

Date/timePositionNaut miles runAvg speedWind from/ knotsBaromVisibWave heightAir tempDewpointWater temp
2017-Oct-18 03:17N 38°03' W 000°11'517.3
2017-Oct-18 03:01N 37°60' W 000°16'917.3
2017-Oct-18 02:30N 37°52' W 000°22'917.3
2017-Oct-18 02:00N 37°44' W 000°26'817.3
2017-Oct-18 01:31N 37°36' W 000°29'815.1
2017-Oct-18 00:57N 37°32' W 000°38'817.1
2017-Oct-18 00:31N 37°32' W 000°48'9 0.6
2017-Oct-17 09:12N 37°33' W 000°59'3 6.6
2017-Oct-17 08:48N 37°31' W 001°01'1 0.6
2017-Oct-17 06:37N 37°32' W 001°00'1 4.5
2017-Oct-17 06:27N 37°31' W 001°01'3 7.9
2017-Oct-17 06:00N 37°28' W 001°00'3 6.6
2017-Oct-17 05:29N 37°24' W 001°00'2 3.0
2017-Oct-17 04:59N 37°24' W 000°59'3 5.2
2017-Oct-17 04:29N 37°26' W 000°56'4 7.4
2017-Oct-17 04:00N 37°27' W 001°00'21811.9
2017-Oct-16 09:39N 36°01' W 005°10'213.9
2017-Oct-16 09:30N 36°01' W 005°12'713.7
2017-Oct-16 09:00N 35°60' W 005°21'713.4
2017-Oct-16 08:30N 35°58' W 005°29'9612.4
2017-Oct-16 00:44N 36°12' W 007°27'312.8
2017-Oct-16 00:28N 36°13' W 007°31'812.9
2017-Oct-15 23:50N 36°15' W 007°41'412.6
2017-Oct-15 23:30N 36°16' W 007°45'712.8
2017-Oct-15 23:00N 36°17' W 007°53'712.7
2017-Oct-15 22:28N 36°19' W 008°01'713.7
2017-Oct-15 21:59N 36°21' W 008°09'2413.6
2017-Oct-15 20:15N 36°26' W 008°38'513.6
2017-Oct-15 19:55N 36°27' W 008°43'613.6
2017-Oct-15 19:30N 36°29' W 008°50'815.0
2017-Oct-15 19:00N 36°31' W 008°59'815.3
2017-Oct-15 18:31N 36°33' W 009°08'815.4
2017-Oct-15 18:01N 36°35' W 009°17'815.5
2017-Oct-15 17:31N 36°41' W 009°24'815.6
2017-Oct-15 17:01N 36°47' W 009°30'815.2
2017-Oct-15 16:31N 36°54' W 009°33'715.0
2017-Oct-15 16:01N 37°01' W 009°32'815.6
2017-Oct-15 15:31N 37°08' W 009°27'815.3
2017-Oct-15 15:00N 37°15' W 009°22'1515.0
2017-Oct-15 14:00N 37°28' W 009°12'815.3
2017-Oct-15 13:30N 37°34' W 009°07'815.8
2017-Oct-15 13:01N 37°41' W 009°02'815.7
2017-Oct-15 12:30N 37°47' W 008°56'815.8
2017-Oct-15 12:01N 37°54' W 008°51'2 4.0
2017-Oct-15 11:30N 37°56' W 008°51'0 0.0
2017-Oct-15 11:01N 37°56' W 008°51'0 0.0
2017-Oct-15 10:30N 37°56' W 008°51'0 0.0
2017-Oct-15 10:01N 37°56' W 008°51'0 0.0
2017-Oct-15 09:30N 37°56' W 008°51'0 0.0
2017-Oct-15 09:00N 37°56' W 008°51'0 0.0
2017-Oct-15 08:31N 37°56' W 008°51'2 3.6
2017-Oct-15 08:00N 37°54' W 008°50'714.7
2017-Oct-15 07:31N 37°48' W 008°56'816.5
2017-Oct-15 07:00N 37°42' W 009°02'816.4
2017-Oct-15 06:31N 37°36' W 009°09'816.4
2017-Oct-15 06:00N 37°30' W 009°16'816.4
2017-Oct-15 05:30N 37°23' W 009°23'816.2
2017-Oct-15 05:00N 37°17' W 009°29'816.2
2017-Oct-15 04:30N 37°11' W 009°36'816.3
2017-Oct-15 04:00N 37°05' W 009°43'816.7
2017-Oct-15 03:30N 36°59' W 009°50'816.6
2017-Oct-15 03:00N 36°51' W 009°53'816.7
2017-Oct-15 02:31N 36°43' W 009°57'816.5
2017-Oct-15 02:00N 36°35' W 010°00'816.5
2017-Oct-15 01:30N 36°28' W 010°04'816.3
2017-Oct-15 01:00N 36°20' W 010°07'816.6
2017-Oct-15 00:30N 36°12' W 010°10'816.6
2017-Oct-15 00:00N 36°04' W 010°14'816.6
2017-Oct-14 23:30N 35°56' W 010°17'816.5
2017-Oct-14 23:00N 35°48' W 010°20'816.8
2017-Oct-14 22:30N 35°40' W 010°23'1516.9
2017-Oct-14 21:37N 35°26' W 010°29'216.7
2017-Oct-14 21:28N 35°24' W 010°30'816.6
2017-Oct-14 20:59N 35°16' W 010°34'816.8
2017-Oct-14 20:30N 35°09' W 010°37'5016.8
2017-Oct-14 17:33N 34°22' W 010°58'318.1
2017-Oct-14 17:24N 34°20' W 010°59'716.1
2017-Oct-14 17:00N 34°13' W 011°02'31716.4
2017-Oct-13 21:38N 29°16' W 013°11'216.4
2017-Oct-13 21:29N 29°13' W 013°12'816.4
2017-Oct-13 21:00N 29°06' W 013°16'1116.2
2017-Oct-13 20:18N 28°60' W 013°26'515.6
2017-Oct-13 20:00N 28°58' W 013°31'1 1.1
2017-Oct-13 19:20N 28°58' W 013°32'0 0.0
2017-Oct-13 18:53N 28°58' W 013°32'0 0.0
2017-Oct-13 18:29N 28°58' W 013°32'0 0.0
2017-Oct-13 17:59N 28°58' W 013°32'0 0.0
2017-Oct-13 17:29N 28°58' W 013°32'0 0.0
2017-Oct-13 16:59N 28°58' W 013°32'0 0.0
2017-Oct-13 16:29N 28°58' W 013°32'0 0.3
2017-Oct-13 15:06N 28°58' W 013°32'0 4.0
2017-Oct-13 15:00N 28°57' W 013°32'1 2.2
2017-Oct-13 14:31N 28°56' W 013°32'1 1.1
2017-Oct-13 14:00N 28°56' W 013°33'510.1
2017-Oct-13 13:30N 28°52' W 013°35'713.5
2017-Oct-13 13:00N 28°46' W 013°39'815.3
2017-Oct-13 12:30N 28°39' W 013°43'815.6
2017-Oct-13 12:00N 28°32' W 013°48'4 2.4
2017-Oct-13 10:17N 28°30' W 013°51'0 0.0
2017-Oct-13 10:00N 28°30' W 013°51'0 0.0
2017-Oct-13 09:27N 28°30' W 013°51'0 0.0
2017-Oct-13 08:59N 28°30' W 013°51'0 0.0
2017-Oct-13 08:30N 28°30' W 013°51'0 0.0
2017-Oct-13 08:00N 28°30' W 013°51'0 0.0
2017-Oct-13 07:30N 28°30' W 013°51'0 0.0
2017-Oct-13 07:00N 28°30' W 013°51'0 0.0
2017-Oct-13 06:30N 28°30' W 013°51'0 0.0
2017-Oct-13 06:00N 28°30' W 013°51'0 0.0
2017-Oct-13 05:28N 28°30' W 013°51'0 0.0
2017-Oct-13 04:59N 28°30' W 013°51'2 4.0
2017-Oct-13 04:28N 28°28' W 013°50'511.5
2017-Oct-13 04:00N 28°24' W 013°47'611.1
2017-Oct-13 03:30N 28°18' W 013°49'511.2
2017-Oct-13 03:00N 28°14' W 013°52'510.5
2017-Oct-13 02:30N 28°10' W 013°56'510.7
2017-Oct-13 02:00N 28°07' W 014°01'610.7
2017-Oct-13 01:28N 28°04' W 014°07'510.6
2017-Oct-13 01:00N 28°02' W 014°12'0 0.8
2017-Oct-13 00:30N 28°03' W 014°12'612.5
2017-Oct-13 00:00N 28°04' W 014°05'2 3.8
2017-Oct-12 23:30N 28°03' W 014°06'510.6
2017-Oct-12 23:00N 28°01' W 014°12'510.9
2017-Oct-12 22:30N 28°00' W 014°18'510.7
2017-Oct-12 22:00N 28°00' W 014°24'511.0
2017-Oct-12 21:30N 28°01' W 014°30'611.6
2017-Oct-12 21:00N 28°02' W 014°37'611.4
2017-Oct-12 20:30N 28°03' W 014°43'611.9
2017-Oct-12 20:00N 28°04' W 014°50'611.6
2017-Oct-12 19:30N 28°05' W 014°56'611.6
2017-Oct-12 19:00N 28°07' W 015°03'611.5
2017-Oct-12 18:30N 28°08' W 015°09'611.6
2017-Oct-12 18:00N 28°09' W 015°15'611.5
2017-Oct-12 17:30N 28°11' W 015°21'611.1
2017-Oct-12 17:00N 28°13' W 015°27'611.5
2017-Oct-12 16:30N 28°14' W 015°34'611.4
2017-Oct-12 16:00N 28°15' W 015°40'611.3
2017-Oct-12 15:30N 28°15' W 015°47'611.3
2017-Oct-12 15:00N 28°15' W 015°53'611.4
2017-Oct-12 14:30N 28°16' W 015°59'611.2
2017-Oct-12 14:00N 28°19' W 016°05'611.5
2017-Oct-12 13:30N 28°23' W 016°09'611.4
2017-Oct-12 13:00N 28°28' W 016°13'1 2.0
2017-Oct-12 12:16N 28°29' W 016°14'0 0.0
2017-Oct-12 12:01N 28°29' W 016°14'0 0.0
2017-Oct-12 11:30N 28°29' W 016°14'0 0.0
2017-Oct-12 11:00N 28°29' W 016°14'0 0.0
2017-Oct-12 10:30N 28°29' W 016°14'0 0.0
2017-Oct-12 10:00N 28°29' W 016°14'0 0.0
2017-Oct-12 09:30N 28°29' W 016°14'0 0.0
2017-Oct-12 08:59N 28°29' W 016°14'0 0.0
2017-Oct-12 08:26N 28°29' W 016°14'0 0.0
2017-Oct-12 08:00N 28°29' W 016°14'0 0.0
2017-Oct-12 07:22N 28°29' W 016°14'0 0.0
2017-Oct-12 06:14N 28°29' W 016°14'0 0.5
2017-Oct-12 06:00N 28°29' W 016°14'3 6.7
2017-Oct-12 05:30N 28°27' W 016°11'915.0
2017-Oct-12 04:55N 28°24' W 016°01'615.2
2017-Oct-12 04:30N 28°22' W 015°55'815.1
2017-Oct-12 04:00N 28°20' W 015°47'815.7
2017-Oct-12 03:30N 28°17' W 015°38'815.6
2017-Oct-12 03:00N 28°14' W 015°30'714.6
2017-Oct-12 02:31N 28°10' W 015°23'3 6.1
2017-Oct-12 02:00N 28°08' W 015°25'0 0.4
2017-Oct-12 01:28N 28°08' W 015°25'0 0.0
2017-Oct-12 00:58N 28°08' W 015°25'0 0.0
2017-Oct-12 00:28N 28°08' W 015°25'0 0.0
2017-Oct-11 23:58N 28°08' W 015°25'0 0.0
2017-Oct-11 23:28N 28°08' W 015°25'0 0.0
2017-Oct-11 22:58N 28°08' W 015°25'0 0.0
2017-Oct-11 22:28N 28°08' W 015°25'0 0.0
2017-Oct-11 21:58N 28°08' W 015°25'0 0.0
2017-Oct-11 21:28N 28°08' W 015°25'0 0.0
2017-Oct-11 20:58N 28°08' W 015°25'0 0.0
2017-Oct-11 20:28N 28°08' W 015°25'0 0.0
2017-Oct-11 19:58N 28°08' W 015°25'0 0.0
2017-Oct-11 19:28N 28°08' W 015°25'0 0.0
2017-Oct-11 18:49N 28°08' W 015°25'0 0.0
2017-Oct-11 18:04N 28°08' W 015°25'0 0.0
2017-Oct-11 17:46N 28°08' W 015°25'0 0.0
2017-Oct-11 17:22N 28°08' W 015°25'0 0.0
2017-Oct-11 16:52N 28°08' W 015°25'64 3.8
2017-Oct-11 00:00N 28°33' W 014°18'613.0
2017-Oct-10 23:30N 28°38' W 014°13'612.9
2017-Oct-10 23:01N 28°42' W 014°07'713.1
2017-Oct-10 22:31N 28°46' W 014°01'612.8
2017-Oct-10 22:00N 28°48' W 013°54'712.8
2017-Oct-10 21:30N 28°49' W 013°47'713.3
2017-Oct-10 21:00N 28°52' W 013°40'713.4
2017-Oct-10 20:30N 28°55' W 013°33'713.6
2017-Oct-10 20:01N 28°59' W 013°27'713.6
2017-Oct-10 19:29N 29°03' W 013°21'713.4
2017-Oct-10 18:56N 29°08' W 013°14'5814.8
2017-Oct-10 15:03N 29°50' W 012°29'115.1
2017-Oct-10 15:00N 29°51' W 012°29'32615.1
2017-Oct-09 17:26N 33°54' W 008°13'715.5
2017-Oct-09 17:00N 33°59' W 008°08'815.3
2017-Oct-09 16:30N 34°05' W 008°02'815.1
2017-Oct-09 16:00N 34°11' W 007°55'715.0
2017-Oct-09 15:31N 34°16' W 007°49'714.9
2017-Oct-09 15:01N 34°21' W 007°43'814.9
2017-Oct-09 14:30N 34°27' W 007°36'715.1
2017-Oct-09 14:01N 34°32' W 007°30'714.9
2017-Oct-09 13:31N 34°38' W 007°24'815.2
2017-Oct-09 13:00N 34°43' W 007°18'715.0
2017-Oct-09 12:31N 34°49' W 007°12'714.8
2017-Oct-09 12:00N 34°54' W 007°06'714.9
2017-Oct-09 11:30N 34°60' W 006°59'815.7
2017-Oct-09 11:01N 35°05' W 006°53'815.3
2017-Oct-09 10:30N 35°11' W 006°46'714.6
2017-Oct-09 10:00N 35°15' W 006°39'714.9
2017-Oct-09 09:31N 35°21' W 006°33'815.0
2017-Oct-09 09:00N 35°26' W 006°27'815.4
2017-Oct-09 08:30N 35°32' W 006°20'27613.2
2017-Oct-08 11:33N 37°14' W 001°02'114.2
2017-Oct-08 11:28N 37°15' W 001°01'714.3
2017-Oct-08 11:00N 37°19' W 000°55'714.3
2017-Oct-08 10:30N 37°24' W 000°48'714.3
2017-Oct-08 10:00N 37°29' W 000°42'714.2
2017-Oct-08 09:30N 37°34' W 000°35'714.1
2017-Oct-08 09:00N 37°39' W 000°30'714.3
2017-Oct-08 08:30N 37°45' W 000°25'814.4
2017-Oct-08 07:59N 37°52' W 000°20'714.3
2017-Oct-08 07:30N 37°58' W 000°15'  

Dump ship's entire track history